Time;durP1;ratioP1;P1;durP2;ratioP2;P2;SDS_P1;SDS_P2;PMS_P1;PMS_P2;Temp;Humidity;BMP_temperature;BMP_pressure;BME280_temperature;BME280_humidity;BME280_pressure;Samples;Min_cycle;Max_cycle;Signal;HPM_P1;HPM_P2
2023/10/18 00:01:22;;;;;;;21.00;8.57;;;;;;;;;;5022314;28;20056;-63
2023/10/18 00:03:48;;;;;;;19.30;9.00;;;;;;;;;;5040287;28;20048;-64
2023/10/18 00:06:15;;;;;;;20.92;9.35;;;;;;;;;;5039055;28;20099;-64
2023/10/18 00:08:45;;;;;;;17.15;7.80;;;;;;;;;;5039314;28;20132;-65
2023/10/18 00:11:12;;;;;;;21.30;9.70;;;;;;;;;;5012997;28;20045;-64
2023/10/18 00:13:38;;;;;;;19.35;9.35;;;;;;;;;;5014739;28;20041;-64
2023/10/18 00:16:05;;;;;;;19.42;9.02;;;;;;;;;;5045544;28;20043;-64
2023/10/18 00:18:34;;;;;;;25.10;10.05;;;;;;;;;;5044028;28;20053;-64
2023/10/18 00:21:01;;;;;;;18.33;9.00;;;;;;;;;;5042076;28;20055;-64
2023/10/18 00:23:27;;;;;;;20.38;10.23;;;;;;;;;;5024763;28;20482;-64
2023/10/18 00:26:00;;;;;;;25.60;10.85;;;;;;;;;;5038067;28;20487;-64
2023/10/18 00:28:26;;;;;;;21.13;9.50;;;;;;;;;;5033337;28;20469;-64
2023/10/18 00:30:52;;;;;;;22.25;9.68;;;;;;;;;;5033187;28;20099;-64
2023/10/18 00:33:19;;;;;;;22.30;10.38;;;;;;;;;;5029683;28;20053;-64
2023/10/18 00:35:47;;;;;;;22.15;9.82;;;;;;;;;;5033494;28;20036;-64
2023/10/18 00:38:16;;;;;;;23.02;10.73;;;;;;;;;;5044734;28;20083;-64
2023/10/18 00:40:45;;;;;;;22.05;10.15;;;;;;;;;;5022560;28;20053;-64
2023/10/18 00:43:22;;;;;;;20.95;9.40;;;;;;;;;;5026322;28;20083;-64
2023/10/18 00:45:50;;;;;;;19.35;10.00;;;;;;;;;;5012010;28;20116;-64
2023/10/18 00:48:17;;;;;;;24.80;12.30;;;;;;;;;;5044534;28;20073;-64
2023/10/18 00:50:45;;;;;;;23.92;10.77;;;;;;;;;;5042214;28;20049;-64
2023/10/18 00:53:19;;;;;;;21.77;11.18;;;;;;;;;;5042088;28;20117;-63
2023/10/18 00:55:47;;;;;;;24.23;11.05;;;;;;;;;;5035833;28;20099;-64
2023/10/18 00:58:15;;;;;;;24.38;11.18;;;;;;;;;;5039809;28;20124;-65
2023/10/18 01:00:41;;;;;;;28.38;12.00;;;;;;;;;;5043661;28;20053;-63
2023/10/18 01:03:28;;;;;;;23.92;10.80;;;;;;;;;;5007920;28;20048;-63
2023/10/18 01:05:58;;;;;;;26.92;11.70;;;;;;;;;;5040153;28;20639;-64
2023/10/18 01:08:24;;;;;;;24.58;11.60;;;;;;;;;;5125872;22;20764;-64
2023/10/18 01:10:54;;;;;;;30.33;13.20;;;;;;;;;;5026120;28;20041;-64
2023/10/18 01:13:20;;;;;;;25.77;12.45;;;;;;;;;;5031721;28;20037;-64
2023/10/18 01:15:48;;;;;;;31.50;12.57;;;;;;;;;;5039805;28;20131;-64
2023/10/18 01:18:14;;;;;;;28.48;12.88;;;;;;;;;;5035318;28;20045;-65
2023/10/18 01:20:40;;;;;;;28.73;12.85;;;;;;;;;;5041091;28;20094;-64
2023/10/18 01:23:11;;;;;;;26.80;12.55;;;;;;;;;;5041744;28;20036;-63
2023/10/18 01:25:37;;;;;;;29.92;12.55;;;;;;;;;;5033974;28;20717;-63
2023/10/18 01:28:05;;;;;;;26.48;12.35;;;;;;;;;;5025851;28;20094;-63
2023/10/18 01:30:33;;;;;;;29.90;12.82;;;;;;;;;;5037961;28;20049;-63
2023/10/18 01:32:59;;;;;;;30.77;14.77;;;;;;;;;;5024076;28;20124;-64
2023/10/18 01:35:25;;;;;;;29.98;13.00;;;;;;;;;;5006990;28;20048;-64
2023/10/18 01:37:53;;;;;;;27.17;12.70;;;;;;;;;;5042504;28;20044;-64
2023/10/18 01:42:58;;;;;;;29.30;13.82;;;;;;;;;;5035450;28;20048;-64
2023/10/18 01:45:29;;;;;;;29.50;13.73;;;;;;;;;;5038202;28;20045;-63
2023/10/18 01:47:57;;;;;;;27.35;13.38;;;;;;;;;;5038880;28;20060;-64
2023/10/18 01:50:23;;;;;;;38.22;15.07;;;;;;;;;;5040948;28;20490;-64
2023/10/18 01:52:50;;;;;;;30.55;13.10;;;;;;;;;;5035179;28;20052;-64
2023/10/18 01:55:17;;;;;;;31.70;13.40;;;;;;;;;;5038205;28;20537;-64
2023/10/18 01:57:45;;;;;;;30.85;14.07;;;;;;;;;;5037219;28;20052;-64
2023/10/18 02:00:15;;;;;;;27.23;12.83;;;;;;;;;;5037581;28;20037;-64
2023/10/18 02:02:41;;;;;;;30.55;13.57;;;;;;;;;;5029655;28;20135;-64
2023/10/18 02:05:08;;;;;;;30.17;13.25;;;;;;;;;;5032941;28;20107;-63
2023/10/18 02:07:35;;;;;;;30.05;13.40;;;;;;;;;;5036399;28;20617;-63
2023/10/18 02:10:02;;;;;;;31.23;13.55;;;;;;;;;;5029611;28;20506;-63
2023/10/18 02:12:29;;;;;;;32.72;14.65;;;;;;;;;;5020828;28;20505;-63
2023/10/18 02:14:55;;;;;;;33.90;13.80;;;;;;;;;;5037033;28;20409;-63
2023/10/18 02:17:21;;;;;;;35.30;14.68;;;;;;;;;;5028571;28;20044;-64
2023/10/18 02:19:48;;;;;;;29.00;14.25;;;;;;;;;;5031132;28;20084;-64
2023/10/18 02:22:16;;;;;;;33.10;14.55;;;;;;;;;;5037881;28;20041;-63
2023/10/18 02:24:45;;;;;;;26.80;13.68;;;;;;;;;;5035794;28;20053;-63
2023/10/18 02:27:15;;;;;;;29.95;14.65;;;;;;;;;;5040990;28;20049;-63
2023/10/18 02:29:42;;;;;;;27.55;13.68;;;;;;;;;;5028422;28;20061;-63
2023/10/18 02:32:23;;;;;;;29.90;14.15;;;;;;;;;;5029559;28;20337;-63
2023/10/18 02:34:52;;;;;;;29.52;14.25;;;;;;;;;;5014596;28;20049;-63
2023/10/18 02:37:19;;;;;;;34.60;14.73;;;;;;;;;;5039487;28;20132;-64
2023/10/18 02:39:45;;;;;;;29.83;14.73;;;;;;;;;;5042556;28;20087;-63
2023/10/18 02:42:13;;;;;;;30.13;13.75;;;;;;;;;;5036007;28;20045;-63
2023/10/18 02:44:42;;;;;;;31.83;14.07;;;;;;;;;;5042164;28;20055;-63
2023/10/18 02:47:16;;;;;;;30.42;14.05;;;;;;;;;;5037360;28;20052;-63
2023/10/18 02:49:46;;;;;;;36.05;14.93;;;;;;;;;;5032347;28;20052;-63
2023/10/18 02:52:15;;;;;;;31.25;15.50;;;;;;;;;;5040530;28;20049;-63
2023/10/18 02:54:42;;;;;;;31.65;14.25;;;;;;;;;;5039019;28;20040;-63
2023/10/18 02:57:09;;;;;;;28.23;13.15;;;;;;;;;;5041915;28;20045;-63
2023/10/18 02:59:35;;;;;;;29.05;14.70;;;;;;;;;;5038273;28;20160;-64
2023/10/18 03:02:09;;;;;;;29.83;14.27;;;;;;;;;;5037860;28;20040;-63
2023/10/18 03:04:39;;;;;;;31.27;14.00;;;;;;;;;;5030804;28;20045;-63
2023/10/18 03:07:08;;;;;;;28.17;13.77;;;;;;;;;;5042257;28;20099;-63
2023/10/18 03:12:02;;;;;;;29.50;14.38;;;;;;;;;;5032104;28;20058;-63
2023/10/18 03:14:41;;;;;;;29.27;14.02;;;;;;;;;;5015465;28;20045;-64
2023/10/18 03:17:35;;;;;;;28.75;13.80;;;;;;;;;;5033163;28;20076;-63
2023/10/18 03:19:56;;;;;;;28.02;13.50;;;;;;;;;;5045514;28;20506;-63
2023/10/18 03:22:25;;;;;;;31.48;14.35;;;;;;;;;;5025196;28;20064;-64
2023/10/18 03:24:53;;;;;;;29.42;13.77;;;;;;;;;;5034874;28;20041;-65
2023/10/18 03:27:20;;;;;;;34.88;14.70;;;;;;;;;;5044003;28;20124;-64
2023/10/18 03:29:46;;;;;;;31.25;13.98;;;;;;;;;;5028889;28;20048;-63
2023/10/18 03:32:19;;;;;;;31.00;14.43;;;;;;;;;;5052775;28;20041;-64
2023/10/18 03:34:45;;;;;;;30.88;14.60;;;;;;;;;;5035661;28;20124;-64
2023/10/18 03:37:20;;;;;;;32.38;15.20;;;;;;;;;;5044529;28;20464;-63
2023/10/18 03:39:48;;;;;;;28.08;14.63;;;;;;;;;;5034717;28;20080;-63
2023/10/18 03:42:30;;;;;;;30.98;15.00;;;;;;;;;;5044447;28;20045;-63
2023/10/18 03:44:57;;;;;;;30.00;13.40;;;;;;;;;;5045127;28;20123;-63
2023/10/18 03:47:28;;;;;;;28.90;13.15;;;;;;;;;;5023826;28;20049;-63
2023/10/18 03:49:55;;;;;;;26.05;14.15;;;;;;;;;;5046020;28;20410;-63
2023/10/18 03:52:21;;;;;;;28.10;14.38;;;;;;;;;;5042415;28;20041;-63
2023/10/18 03:57:29;;;;;;;27.58;14.32;;;;;;;;;;5034042;28;20046;-63
2023/10/18 03:59:59;;;;;;;28.52;14.10;;;;;;;;;;5041511;28;20049;-63
2023/10/18 04:04:57;;;;;;;30.75;14.45;;;;;;;;;;5045699;28;20048;-63
2023/10/18 04:07:27;;;;;;;28.33;14.95;;;;;;;;;;5026424;28;20053;-64
2023/10/18 04:09:54;;;;;;;32.05;15.50;;;;;;;;;;5043399;28;20045;-63
2023/10/18 04:12:22;;;;;;;32.58;14.52;;;;;;;;;;5045133;28;20175;-63
2023/10/18 04:14:58;;;;;;;30.50;14.50;;;;;;;;;;5043073;28;20037;-63
2023/10/18 04:17:36;;;;;;;29.83;14.98;;;;;;;;;;5043943;28;20510;-64
2023/10/18 04:20:09;;;;;;;34.13;15.63;;;;;;;;;;5045361;28;20102;-63
2023/10/18 04:22:38;;;;;;;31.33;14.70;;;;;;;;;;5039666;28;20698;-63
2023/10/18 04:25:25;;;;;;;30.13;14.35;;;;;;;;;;5040099;28;20037;-63
2023/10/18 04:27:52;;;;;;;31.45;15.40;;;;;;;;;;5041637;28;20049;-63
2023/10/18 04:30:22;;;;;;;30.00;14.70;;;;;;;;;;5033707;28;20073;-63
2023/10/18 04:32:53;;;;;;;31.80;15.27;;;;;;;;;;5045377;28;21143;-64
2023/10/18 04:35:25;;;;;;;34.00;14.75;;;;;;;;;;5044720;28;20167;-63
2023/10/18 04:37:52;;;;;;;31.02;15.55;;;;;;;;;;5043795;28;20045;-63
2023/10/18 04:40:28;;;;;;;27.60;14.30;;;;;;;;;;5043285;28;20044;-63
2023/10/18 04:42:55;;;;;;;29.00;14.82;;;;;;;;;;5044686;28;20041;-63
2023/10/18 04:45:24;;;;;;;33.03;14.68;;;;;;;;;;5040427;28;20063;-63
2023/10/18 04:47:50;;;;;;;29.60;15.07;;;;;;;;;;5038577;28;20056;-63
2023/10/18 04:50:19;;;;;;;29.38;14.60;;;;;;;;;;5037529;28;20287;-63
2023/10/18 04:52:47;;;;;;;31.83;15.27;;;;;;;;;;5037432;28;20048;-64
2023/10/18 04:55:14;;;;;;;26.33;13.85;;;;;;;;;;5036771;28;20041;-64
2023/10/18 04:57:46;;;;;;;31.67;15.25;;;;;;;;;;5035726;28;20059;-64
2023/10/18 05:00:25;;;;;;;28.90;14.27;;;;;;;;;;5036414;28;20103;-64
2023/10/18 05:02:54;;;;;;;30.73;15.55;;;;;;;;;;5030289;28;20040;-64
2023/10/18 05:05:24;;;;;;;24.42;14.65;;;;;;;;;;5028740;28;20520;-64
2023/10/18 05:07:53;;;;;;;26.85;13.63;;;;;;;;;;5028869;28;20077;-64
2023/10/18 05:10:20;;;;;;;29.13;14.50;;;;;;;;;;5006801;28;20549;-63
2023/10/18 05:12:49;;;;;;;28.88;15.30;;;;;;;;;;5038362;28;20045;-63
2023/10/18 05:15:21;;;;;;;27.42;13.70;;;;;;;;;;5032384;28;20041;-64
2023/10/18 05:17:49;;;;;;;25.98;13.90;;;;;;;;;;5041886;28;20182;-65
2023/10/18 05:22:45;;;;;;;30.65;16.55;;;;;;;;;;5041242;28;20076;-64
2023/10/18 05:25:23;;;;;;;26.60;13.90;;;;;;;;;;5032951;28;20538;-64
2023/10/18 05:28:15;;;;;;;28.17;15.27;;;;;;;;;;5033818;28;20060;-64
2023/10/18 05:36:16;;;;;;;43.75;24.00;;;;;;;;;;5021479;28;20091;-65
2023/10/18 05:43:54;;;;;;;26.25;14.00;;;;;;;;;;5035516;28;20045;-64
2023/10/18 05:46:23;;;;;;;51.47;29.95;;;;;;;;;;5040413;28;20049;-64
2023/10/18 05:48:49;;;;;;;37.35;21.60;;;;;;;;;;5018590;28;20041;-65
2023/10/18 05:53:59;;;;;;;32.88;19.90;;;;;;;;;;5041780;28;20045;-64
2023/10/18 05:56:29;;;;;;;32.53;21.83;;;;;;;;;;5035538;28;20045;-65
2023/10/18 06:01:41;;;;;;;30.63;17.80;;;;;;;;;;5038919;28;20048;-64
2023/10/18 06:04:07;;;;;;;33.22;16.70;;;;;;;;;;5022822;28;21840;-64
2023/10/18 06:06:37;;;;;;;28.52;16.10;;;;;;;;;;5024203;28;20033;-64
2023/10/18 06:09:09;;;;;;;32.03;16.38;;;;;;;;;;5038725;28;20057;-65
2023/10/18 06:11:39;;;;;;;29.83;14.80;;;;;;;;;;5037841;28;20048;-64
2023/10/18 06:14:05;;;;;;;39.00;20.05;;;;;;;;;;5038881;28;20052;-64
2023/10/18 06:16:35;;;;;;;29.85;16.48;;;;;;;;;;5024531;28;20189;-65
2023/10/18 06:19:06;;;;;;;33.40;18.27;;;;;;;;;;5035380;28;20068;-65
2023/10/18 06:21:36;;;;;;;36.78;19.08;;;;;;;;;;4999699;28;20083;-65
2023/10/18 06:24:10;;;;;;;28.63;15.25;;;;;;;;;;5032453;28;20043;-64
2023/10/18 06:26:40;;;;;;;31.58;16.17;;;;;;;;;;5022810;28;20049;-64
2023/10/18 06:29:09;;;;;;;41.40;20.60;;;;;;;;;;5028692;28;20041;-64
2023/10/18 06:31:43;;;;;;;25.65;15.00;;;;;;;;;;5033561;28;20466;-64
2023/10/18 06:34:17;;;;;;;28.10;15.10;;;;;;;;;;5037136;28;20041;-64
2023/10/18 06:36:43;;;;;;;43.10;19.70;;;;;;;;;;5035172;28;20195;-64
2023/10/18 06:39:24;;;;;;;39.33;19.90;;;;;;;;;;5042133;28;20513;-64
2023/10/18 06:41:50;;;;;;;34.10;15.82;;;;;;;;;;5041785;28;20561;-64
2023/10/18 06:44:18;;;;;;;51.53;25.50;;;;;;;;;;5040858;28;20595;-64
2023/10/18 06:46:47;;;;;;;30.90;14.45;;;;;;;;;;5042717;28;20048;-64
2023/10/18 06:49:13;;;;;;;36.70;19.55;;;;;;;;;;5039362;28;20045;-64
2023/10/18 06:51:43;;;;;;;42.80;20.63;;;;;;;;;;5038623;28;20075;-64
2023/10/18 06:54:13;;;;;;;78.30;33.75;;;;;;;;;;5037990;28;20068;-64
2023/10/18 06:56:39;;;;;;;30.67;14.82;;;;;;;;;;5041389;28;20069;-64
2023/10/18 06:59:10;;;;;;;30.23;16.38;;;;;;;;;;5037362;28;20539;-64
2023/10/18 07:01:53;;;;;;;32.65;15.75;;;;;;;;;;5035165;28;20045;-64
2023/10/18 07:04:19;;;;;;;28.83;14.15;;;;;;;;;;5034389;28;20042;-64
2023/10/18 07:06:45;;;;;;;26.95;14.45;;;;;;;;;;5030984;28;20042;-64
2023/10/18 07:09:24;;;;;;;26.25;14.30;;;;;;;;;;5008596;28;20083;-64
2023/10/18 07:11:51;;;;;;;30.00;14.32;;;;;;;;;;5025239;28;20102;-64
2023/10/18 07:14:19;;;;;;;30.67;15.38;;;;;;;;;;5024369;28;20049;-64
2023/10/18 07:16:48;;;;;;;27.05;13.68;;;;;;;;;;5036057;28;20064;-64
2023/10/18 07:19:27;;;;;;;25.67;14.27;;;;;;;;;;5034272;28;20123;-64
2023/10/18 07:22:06;;;;;;;26.67;15.32;;;;;;;;;;5041223;28;20098;-64
2023/10/18 07:24:32;;;;;;;29.73;15.43;;;;;;;;;;5016784;28;20056;-64
2023/10/18 07:27:03;;;;;;;25.80;14.00;;;;;;;;;;5040486;28;20033;-64
2023/10/18 07:29:31;;;;;;;26.95;13.48;;;;;;;;;;5026480;28;20110;-64
2023/10/18 07:31:59;;;;;;;25.63;14.48;;;;;;;;;;5037433;28;20100;-64
2023/10/18 07:34:36;;;;;;;28.25;14.90;;;;;;;;;;5030217;28;20045;-64
2023/10/18 07:37:17;;;;;;;28.35;13.35;;;;;;;;;;5029669;28;20168;-64
2023/10/18 07:39:43;;;;;;;27.83;14.60;;;;;;;;;;5040848;28;20049;-64
2023/10/18 07:42:11;;;;;;;25.35;13.85;;;;;;;;;;5040438;28;20852;-65
2023/10/18 07:44:41;;;;;;;28.17;14.75;;;;;;;;;;5039176;28;20118;-65
2023/10/18 07:47:12;;;;;;;27.10;13.88;;;;;;;;;;5039589;28;20052;-65
2023/10/18 07:49:40;;;;;;;28.92;14.10;;;;;;;;;;5038357;28;20052;-65
2023/10/18 07:52:06;;;;;;;28.05;13.40;;;;;;;;;;5038626;28;20087;-65
2023/10/18 07:54:35;;;;;;;24.85;13.40;;;;;;;;;;5038462;28;20057;-64
2023/10/18 07:57:01;;;;;;;27.45;13.60;;;;;;;;;;5035195;28;20041;-62
2023/10/18 07:59:27;;;;;;;25.40;13.32;;;;;;;;;;5035166;28;20098;-62
2023/10/18 08:02:43;;;;;;;27.08;13.52;;;;;;;;;;5034873;28;20517;-62
2023/10/18 08:04:42;;;;;;;24.17;13.65;;;;;;;;;;5029618;28;20144;-62
2023/10/18 08:07:15;;;;;;;27.85;14.93;;;;;;;;;;5030809;28;20056;-63
2023/10/18 08:09:41;;;;;;;26.58;13.00;;;;;;;;;;5030402;28;20057;-62
2023/10/18 08:12:08;;;;;;;23.75;12.98;;;;;;;;;;5037639;28;20060;-62
2023/10/18 08:14:35;;;;;;;25.90;12.50;;;;;;;;;;5042091;28;20037;-62
2023/10/18 08:17:29;;;;;;;25.70;12.93;;;;;;;;;;5035294;28;20043;-62
2023/10/18 08:22:39;;;;;;;26.58;13.05;;;;;;;;;;5035218;28;20046;-62
2023/10/18 08:25:06;;;;;;;29.58;13.55;;;;;;;;;;5032181;28;20064;-62
2023/10/18 08:27:32;;;;;;;21.45;11.93;;;;;;;;;;5041432;28;20111;-62
2023/10/18 08:30:21;;;;;;;23.30;12.23;;;;;;;;;;5029552;28;20304;-62
2023/10/18 08:32:44;;;;;;;23.77;12.18;;;;;;;;;;5027411;28;20479;-62
2023/10/18 08:35:16;;;;;;;21.08;11.85;;;;;;;;;;5037828;28;20041;-62
2023/10/18 08:37:43;;;;;;;21.48;10.63;;;;;;;;;;5021068;28;20081;-62
2023/10/18 08:40:27;;;;;;;20.75;11.10;;;;;;;;;;5037443;28;20045;-62
2023/10/18 08:42:57;;;;;;;24.17;11.23;;;;;;;;;;5033366;28;20067;-62
2023/10/18 08:45:23;;;;;;;17.58;9.52;;;;;;;;;;5041701;28;20378;-62
2023/10/18 08:47:56;;;;;;;19.65;10.63;;;;;;;;;;5023937;28;20399;-62
2023/10/18 08:50:22;;;;;;;20.52;10.95;;;;;;;;;;5041602;28;20041;-62
2023/10/18 08:52:48;;;;;;;22.88;10.38;;;;;;;;;;5042296;28;20560;-62
2023/10/18 08:55:43;;;;;;;18.88;9.98;;;;;;;;;;5023207;28;20049;-62
2023/10/18 08:58:10;;;;;;;20.95;9.95;;;;;;;;;;5031661;28;20053;-62
2023/10/18 09:03:07;;;;;;;19.13;9.15;;;;;;;;;;5033702;28;20068;-62
2023/10/18 09:05:35;;;;;;;18.17;10.52;;;;;;;;;;5036781;28;20120;-62
2023/10/18 09:08:04;;;;;;;18.55;9.68;;;;;;;;;;5031077;28;20044;-62
2023/10/18 09:13:29;;;;;;;19.48;9.90;;;;;;;;;;5031686;28;20071;-62
2023/10/18 09:18:20;;;;;;;18.88;10.13;;;;;;;;;;5043143;28;21100;-62
2023/10/18 09:20:46;;;;;;;18.65;10.05;;;;;;;;;;5044185;28;20093;-62
2023/10/18 09:23:21;;;;;;;19.02;9.50;;;;;;;;;;5039119;28;20098;-63
2023/10/18 09:25:48;;;;;;;19.58;10.27;;;;;;;;;;5036561;28;20495;-62
2023/10/18 09:28:19;;;;;;;18.88;10.18;;;;;;;;;;5034271;28;20049;-62
2023/10/18 09:30:46;;;;;;;16.45;9.65;;;;;;;;;;5012154;28;20053;-62
2023/10/18 09:33:13;;;;;;;19.48;9.23;;;;;;;;;;5027185;28;20042;-62
2023/10/18 09:35:47;;;;;;;19.38;10.23;;;;;;;;;;5028538;28;20098;-62
2023/10/18 09:38:13;;;;;;;22.85;11.27;;;;;;;;;;5025808;28;20049;-63
2023/10/18 09:40:40;;;;;;;16.77;8.98;;;;;;;;;;5041806;28;20041;-62
2023/10/18 09:43:06;;;;;;;17.77;9.48;;;;;;;;;;5023719;28;20152;-62
2023/10/18 09:45:35;;;;;;;15.43;8.80;;;;;;;;;;5039479;28;20577;-62
2023/10/18 09:48:02;;;;;;;15.05;8.40;;;;;;;;;;5044190;28;20498;-62
2023/10/18 09:50:31;;;;;;;18.10;8.63;;;;;;;;;;5034872;28;20478;-62
2023/10/18 09:52:57;;;;;;;17.63;8.50;;;;;;;;;;5012282;28;20056;-62
2023/10/18 09:55:26;;;;;;;17.33;8.88;;;;;;;;;;5020371;28;20045;-62
2023/10/18 09:58:14;;;;;;;14.85;8.02;;;;;;;;;;5033927;28;20040;-61
2023/10/18 10:00:43;;;;;;;15.32;9.25;;;;;;;;;;5037490;28;20115;-62
2023/10/18 10:03:10;;;;;;;16.08;8.52;;;;;;;;;;5037004;28;20036;-62
2023/10/18 10:05:43;;;;;;;17.70;8.95;;;;;;;;;;5018151;28;20049;-62
2023/10/18 10:08:10;;;;;;;14.05;8.05;;;;;;;;;;5028453;28;20048;-62
2023/10/18 10:10:45;;;;;;;14.75;7.90;;;;;;;;;;5023573;28;20554;-62
2023/10/18 10:13:28;;;;;;;14.80;8.98;;;;;;;;;;5027875;28;20049;-62
2023/10/18 10:16:03;;;;;;;18.10;8.07;;;;;;;;;;5041661;28;20049;-62
2023/10/18 10:18:31;;;;;;;14.88;8.38;;;;;;;;;;5041126;28;20053;-62
2023/10/18 10:20:58;;;;;;;18.75;8.48;;;;;;;;;;5037111;28;20049;-62
2023/10/18 10:23:24;;;;;;;14.35;7.57;;;;;;;;;;5036610;28;20782;-62
2023/10/18 10:26:01;;;;;;;16.08;7.72;;;;;;;;;;5020044;28;20398;-62
2023/10/18 10:31:50;;;;;;;15.32;7.40;;;;;;;;;;5025797;28;20076;-62
2023/10/18 10:34:24;;;;;;;13.73;7.68;;;;;;;;;;5023733;28;20049;-62
2023/10/18 10:36:50;;;;;;;12.40;7.20;;;;;;;;;;5023320;28;20044;-62
2023/10/18 10:39:30;;;;;;;15.65;7.80;;;;;;;;;;5040708;28;20049;-63
2023/10/18 10:42:00;;;;;;;19.63;8.30;;;;;;;;;;5038711;28;20114;-62
2023/10/18 10:44:30;;;;;;;12.30;6.75;;;;;;;;;;5039577;28;20045;-62
2023/10/18 10:47:16;;;;;;;13.25;7.13;;;;;;;;;;5036061;28;20041;-62
2023/10/18 10:49:48;;;;;;;12.48;6.97;;;;;;;;;;5012809;28;20059;-62
2023/10/18 10:52:18;;;;;;;13.48;7.22;;;;;;;;;;5030454;28;20120;-62
2023/10/18 10:54:51;;;;;;;11.50;7.13;;;;;;;;;;5034478;28;20446;-62
2023/10/18 10:57:17;;;;;;;12.27;7.25;;;;;;;;;;5028123;28;20152;-62
2023/10/18 10:59:55;;;;;;;13.18;6.75;;;;;;;;;;5031772;28;20174;-62
2023/10/18 11:02:39;;;;;;;14.15;7.13;;;;;;;;;;5026330;28;20098;-62
2023/10/18 11:05:15;;;;;;;12.52;6.88;;;;;;;;;;5024437;28;20045;-62
2023/10/18 11:07:43;;;;;;;14.65;7.68;;;;;;;;;;5024245;28;20099;-62
2023/10/18 11:10:15;;;;;;;11.37;6.20;;;;;;;;;;5027134;28;20088;-62
2023/10/18 11:12:41;;;;;;;19.10;7.70;;;;;;;;;;5039182;28;20350;-62
2023/10/18 11:15:16;;;;;;;13.57;7.43;;;;;;;;;;5022803;28;20041;-62
2023/10/18 11:17:44;;;;;;;10.73;6.50;;;;;;;;;;5036185;28;20498;-62
2023/10/18 11:20:20;;;;;;;11.43;6.88;;;;;;;;;;5028736;28;20056;-62
2023/10/18 11:22:47;;;;;;;13.48;7.18;;;;;;;;;;5032050;28;20128;-62
2023/10/18 11:25:19;;;;;;;11.20;6.28;;;;;;;;;;5037212;28;20213;-62
2023/10/18 11:27:46;;;;;;;13.50;7.68;;;;;;;;;;5015608;28;20080;-64
2023/10/18 11:30:15;;;;;;;13.75;7.50;;;;;;;;;;5038028;28;20049;-64
2023/10/18 11:32:48;;;;;;;12.93;6.53;;;;;;;;;;5038908;28;20765;-64
2023/10/18 11:35:17;;;;;;;13.63;7.00;;;;;;;;;;5020898;28;20049;-64
2023/10/18 11:37:45;;;;;;;12.00;6.32;;;;;;;;;;5038954;28;20051;-63
2023/10/18 11:40:15;;;;;;;11.95;7.05;;;;;;;;;;5031177;28;20045;-63
2023/10/18 11:43:11;;;;;;;12.75;6.97;;;;;;;;;;5038464;28;20458;-63
2023/10/18 11:45:38;;;;;;;12.30;7.05;;;;;;;;;;5019530;28;20053;-63
2023/10/18 11:48:14;;;;;;;12.07;7.05;;;;;;;;;;5042113;28;20415;-63
2023/10/18 11:50:41;;;;;;;10.40;6.57;;;;;;;;;;5025280;28;20053;-63
2023/10/18 11:53:08;;;;;;;10.55;6.25;;;;;;;;;;5020142;28;20114;-63
2023/10/18 11:55:37;;;;;;;11.27;6.43;;;;;;;;;;5035423;28;20141;-64
2023/10/18 11:58:09;;;;;;;10.30;6.03;;;;;;;;;;5042480;28;20049;-64
2023/10/18 12:00:38;;;;;;;11.32;5.97;;;;;;;;;;5036163;28;20048;-63
2023/10/18 12:03:05;;;;;;;;;;;;;;;;;;5042961;28;20052;-64
2023/10/18 12:05:31;;;;;;;10.32;5.82;;;;;;;;;;5042692;28;20445;-63
2023/10/18 12:08:05;;;;;;;10.05;6.05;;;;;;;;;;5043203;28;20112;-63
2023/10/18 12:10:34;;;;;;;9.18;5.80;;;;;;;;;;5041022;28;20057;-63
2023/10/18 12:13:02;;;;;;;9.80;5.75;;;;;;;;;;5025057;28;20049;-63
2023/10/18 12:15:30;;;;;;;12.30;6.10;;;;;;;;;;5041119;28;20155;-63
2023/10/18 12:17:56;;;;;;;11.45;6.18;;;;;;;;;;5041840;28;20044;-63
2023/10/18 12:20:34;;;;;;;11.45;6.03;;;;;;;;;;5042066;28;20045;-64
2023/10/18 12:23:02;;;;;;;10.70;5.68;;;;;;;;;;5036918;28;20131;-63
2023/10/18 12:25:28;;;;;;;11.27;6.95;;;;;;;;;;5023763;28;20045;-63
2023/10/18 12:27:55;;;;;;;10.15;6.38;;;;;;;;;;5007880;28;20049;-63
2023/10/18 12:30:27;;;;;;;12.88;6.15;;;;;;;;;;5034974;28;20041;-64
2023/10/18 12:32:54;;;;;;;8.90;5.65;;;;;;;;;;5031383;28;20622;-64
2023/10/18 12:35:20;;;;;;;11.50;6.05;;;;;;;;;;5028322;28;20049;-63
2023/10/18 12:37:51;;;;;;;9.68;5.47;;;;;;;;;;5033184;28;20111;-63
2023/10/18 12:41:06;;;;;;;10.57;5.90;;;;;;;;;;5030834;28;20472;-63
2023/10/18 12:43:17;;;;;;;12.98;6.60;;;;;;;;;;5015488;28;20045;-63
2023/10/18 12:45:43;;;;;;;11.75;6.63;;;;;;;;;;5027790;28;20068;-63
2023/10/18 12:48:09;;;;;;;12.65;6.20;;;;;;;;;;5038707;28;20102;-63
2023/10/18 12:50:36;;;;;;;11.68;6.47;;;;;;;;;;5037211;28;20410;-64
2023/10/18 12:55:47;;;;;;;11.88;6.45;;;;;;;;;;5042379;28;20057;-63
2023/10/18 12:58:19;;;;;;;11.82;6.18;;;;;;;;;;5024086;28;20045;-64
2023/10/18 13:00:46;;;;;;;12.50;6.10;;;;;;;;;;5022065;28;20053;-64
2023/10/18 13:05:42;;;;;;;12.10;6.13;;;;;;;;;;5041605;28;20136;-63
2023/10/18 13:08:22;;;;;;;10.65;6.30;;;;;;;;;;5038538;28;20087;-63
2023/10/18 13:10:57;;;;;;;12.38;6.25;;;;;;;;;;5029467;28;20058;-63
2023/10/18 13:13:23;;;;;;;14.13;6.10;;;;;;;;;;5028856;28;20106;-63
2023/10/18 13:15:49;;;;;;;13.50;6.15;;;;;;;;;;5041361;28;20722;-63
2023/10/18 13:18:16;;;;;;;10.80;6.25;;;;;;;;;;5023793;28;20055;-63
2023/10/18 13:20:45;;;;;;;11.60;6.63;;;;;;;;;;5041122;28;20059;-63
2023/10/18 13:23:18;;;;;;;13.27;6.93;;;;;;;;;;5041916;28;20044;-63
2023/10/18 13:25:54;;;;;;;13.57;7.25;;;;;;;;;;5032576;28;20441;-63
2023/10/18 13:28:59;;;;;;;17.23;8.02;;;;;;;;;;5013904;28;20075;-63
2023/10/18 13:31:18;;;;;;;12.68;7.05;;;;;;;;;;5021639;28;20069;-63
2023/10/18 13:33:45;;;;;;;13.45;7.38;;;;;;;;;;5006531;28;20057;-64
2023/10/18 13:36:13;;;;;;;12.73;6.60;;;;;;;;;;5032541;28;20175;-63
2023/10/18 13:38:40;;;;;;;16.90;7.38;;;;;;;;;;5033395;28;20045;-65
2023/10/18 13:41:07;;;;;;;14.43;7.50;;;;;;;;;;5039077;28;20394;-64
2023/10/18 13:43:35;;;;;;;17.52;6.68;;;;;;;;;;5016641;28;20049;-64
2023/10/18 13:46:03;;;;;;;16.35;7.10;;;;;;;;;;5017146;28;20143;-64
2023/10/18 13:48:29;;;;;;;11.43;6.65;;;;;;;;;;5033787;28;20048;-65
2023/10/18 13:50:58;;;;;;;15.02;6.78;;;;;;;;;;5038717;28;20761;-64
2023/10/18 13:53:26;;;;;;;14.82;6.78;;;;;;;;;;5022844;28;20075;-64
2023/10/18 13:55:58;;;;;;;13.20;6.60;;;;;;;;;;5040915;28;20045;-65
2023/10/18 13:58:24;;;;;;;13.65;7.35;;;;;;;;;;5024990;28;20073;-62
2023/10/18 14:00:51;;;;;;;14.38;6.85;;;;;;;;;;5035882;28;20085;-62
2023/10/18 14:03:19;;;;;;;16.50;8.00;;;;;;;;;;5021458;28;20045;-62
2023/10/18 14:05:46;;;;;;;13.35;7.30;;;;;;;;;;5025631;28;20084;-62
2023/10/18 14:08:16;;;;;;;13.85;7.38;;;;;;;;;;5029713;28;20037;-63
2023/10/18 14:10:42;;;;;;;16.65;7.95;;;;;;;;;;5035421;28;20057;-64
2023/10/18 14:13:08;;;;;;;14.63;7.18;;;;;;;;;;5040830;28;20044;-64
2023/10/18 14:15:38;;;;;;;17.05;8.18;;;;;;;;;;5040623;28;20037;-64
2023/10/18 14:18:04;;;;;;;18.52;7.55;;;;;;;;;;5039970;28;20406;-64
2023/10/18 14:20:32;;;;;;;14.68;7.32;;;;;;;;;;5037509;28;20088;-64
2023/10/18 14:22:59;;;;;;;16.30;7.95;;;;;;;;;;5036566;28;20049;-64
2023/10/18 14:25:26;;;;;;;15.95;8.30;;;;;;;;;;5039785;28;20040;-64
2023/10/18 14:27:52;;;;;;;10.65;6.55;;;;;;;;;;5034398;28;20092;-64
2023/10/18 14:30:18;;;;;;;15.75;8.35;;;;;;;;;;5019790;28;20111;-64
2023/10/18 14:32:44;;;;;;;15.20;7.50;;;;;;;;;;5037719;28;20048;-63
2023/10/18 14:35:12;;;;;;;16.60;8.43;;;;;;;;;;5030852;28;20132;-64
2023/10/18 14:37:40;;;;;;;16.80;7.43;;;;;;;;;;5036777;28;20041;-64
2023/10/18 14:40:06;;;;;;;15.77;7.40;;;;;;;;;;5021576;28;20067;-63
2023/10/18 14:42:32;;;;;;;15.57;7.63;;;;;;;;;;5024074;28;20119;-64
2023/10/18 14:44:59;;;;;;;15.23;7.88;;;;;;;;;;5020554;28;20863;-63
2023/10/18 14:47:31;;;;;;;19.05;7.72;;;;;;;;;;5040710;28;20827;-64
2023/10/18 14:49:58;;;;;;;13.70;6.85;;;;;;;;;;5034064;28;20146;-62
2023/10/18 14:52:25;;;;;;;14.43;8.00;;;;;;;;;;5025926;28;20045;-62
2023/10/18 14:54:51;;;;;;;18.98;9.02;;;;;;;;;;5028375;28;20055;-63
2023/10/18 14:57:20;;;;;;;19.27;7.65;;;;;;;;;;5030536;28;20524;-63
2023/10/18 14:59:49;;;;;;;13.15;7.55;;;;;;;;;;5036493;28;20132;-63
2023/10/18 15:02:16;;;;;;;19.48;8.00;;;;;;;;;;5028686;28;20041;-63
2023/10/18 15:04:43;;;;;;;14.80;8.23;;;;;;;;;;5037532;28;20049;-63
2023/10/18 15:07:09;;;;;;;15.77;8.20;;;;;;;;;;5020876;28;20053;-63
2023/10/18 15:09:35;;;;;;;18.40;8.00;;;;;;;;;;5033399;28;20081;-63
2023/10/18 15:12:01;;;;;;;17.55;7.85;;;;;;;;;;5033516;28;20049;-63
2023/10/18 15:14:28;;;;;;;15.98;7.72;;;;;;;;;;5029292;28;20045;-62
2023/10/18 15:16:54;;;;;;;15.70;8.15;;;;;;;;;;5034187;28;20037;-62
2023/10/18 15:19:20;;;;;;;16.23;8.30;;;;;;;;;;5027717;28;20049;-63
2023/10/18 15:21:46;;;;;;;16.77;8.10;;;;;;;;;;5019355;28;20744;-63
2023/10/18 15:24:15;;;;;;;15.48;7.85;;;;;;;;;;5041307;28;20033;-63
2023/10/18 15:26:41;;;;;;;17.88;8.18;;;;;;;;;;5041968;28;20413;-63